sensor_id;sensor_type;location;lat;lon;timestamp;P1;durP1;ratioP1;P2;durP2;ratioP2
12511;SDS011;6321;53.798;10.382;2022-07-06T00:01:51;2.67;;;1.87;;
12511;SDS011;6321;53.798;10.382;2022-07-06T00:04:17;2.87;;;2.30;;
12511;SDS011;6321;53.798;10.382;2022-07-06T00:06:44;9.43;;;2.90;;
12511;SDS011;6321;53.798;10.382;2022-07-06T00:09:10;4.00;;;2.80;;
12511;SDS011;6321;53.798;10.382;2022-07-06T00:11:35;6.23;;;2.77;;
12511;SDS011;6321;53.798;10.382;2022-07-06T00:14:01;4.70;;;2.43;;
12511;SDS011;6321;53.798;10.382;2022-07-06T00:16:27;6.43;;;2.20;;
12511;SDS011;6321;53.798;10.382;2022-07-06T00:18:53;5.60;;;2.80;;
12511;SDS011;6321;53.798;10.382;2022-07-06T00:21:19;4.57;;;2.70;;
12511;SDS011;6321;53.798;10.382;2022-07-06T00:23:45;9.30;;;2.57;;
12511;SDS011;6321;53.798;10.382;2022-07-06T00:26:12;4.00;;;2.50;;
12511;SDS011;6321;53.798;10.382;2022-07-06T00:28:38;4.63;;;2.20;;
12511;SDS011;6321;53.798;10.382;2022-07-06T00:31:04;6.67;;;2.43;;
12511;SDS011;6321;53.798;10.382;2022-07-06T00:33:30;6.27;;;2.30;;
12511;SDS011;6321;53.798;10.382;2022-07-06T00:35:56;3.73;;;2.57;;
12511;SDS011;6321;53.798;10.382;2022-07-06T00:38:22;7.17;;;3.00;;
12511;SDS011;6321;53.798;10.382;2022-07-06T00:40:48;3.93;;;2.40;;
12511;SDS011;6321;53.798;10.382;2022-07-06T00:43:14;6.37;;;2.93;;
12511;SDS011;6321;53.798;10.382;2022-07-06T00:45:40;5.43;;;2.53;;
12511;SDS011;6321;53.798;10.382;2022-07-06T00:48:06;9.03;;;3.43;;
12511;SDS011;6321;53.798;10.382;2022-07-06T00:50:33;8.73;;;2.40;;
12511;SDS011;6321;53.798;10.382;2022-07-06T00:53:00;4.40;;;2.53;;
12511;SDS011;6321;53.798;10.382;2022-07-06T00:55:27;6.13;;;2.50;;
12511;SDS011;6321;53.798;10.382;2022-07-06T00:57:53;5.03;;;2.77;;
12511;SDS011;6321;53.798;10.382;2022-07-06T01:00:21;6.63;;;2.83;;
12511;SDS011;6321;53.798;10.382;2022-07-06T01:02:47;6.13;;;2.63;;
12511;SDS011;6321;53.798;10.382;2022-07-06T01:05:13;3.53;;;2.40;;
12511;SDS011;6321;53.798;10.382;2022-07-06T01:07:41;6.67;;;2.73;;
12511;SDS011;6321;53.798;10.382;2022-07-06T01:10:08;6.60;;;2.70;;
12511;SDS011;6321;53.798;10.382;2022-07-06T01:12:34;4.90;;;2.80;;
12511;SDS011;6321;53.798;10.382;2022-07-06T01:15:02;5.67;;;2.83;;
12511;SDS011;6321;53.798;10.382;2022-07-06T01:17:28;6.80;;;2.80;;
12511;SDS011;6321;53.798;10.382;2022-07-06T01:19:55;4.17;;;2.63;;
12511;SDS011;6321;53.798;10.382;2022-07-06T01:22:21;4.10;;;2.50;;
12511;SDS011;6321;53.798;10.382;2022-07-06T01:24:47;6.37;;;2.57;;
12511;SDS011;6321;53.798;10.382;2022-07-06T01:27:13;7.67;;;2.90;;
12511;SDS011;6321;53.798;10.382;2022-07-06T01:29:39;5.60;;;2.83;;
12511;SDS011;6321;53.798;10.382;2022-07-06T01:32:05;4.10;;;2.70;;
12511;SDS011;6321;53.798;10.382;2022-07-06T01:34:31;3.97;;;2.83;;
12511;SDS011;6321;53.798;10.382;2022-07-06T01:36:57;4.87;;;2.47;;
12511;SDS011;6321;53.798;10.382;2022-07-06T01:39:23;7.60;;;3.17;;
12511;SDS011;6321;53.798;10.382;2022-07-06T01:41:49;8.17;;;2.80;;
12511;SDS011;6321;53.798;10.382;2022-07-06T01:44:15;4.63;;;2.60;;
12511;SDS011;6321;53.798;10.382;2022-07-06T01:46:41;6.77;;;2.87;;
12511;SDS011;6321;53.798;10.382;2022-07-06T01:49:07;3.37;;;2.30;;
12511;SDS011;6321;53.798;10.382;2022-07-06T01:51:33;3.43;;;2.73;;
12511;SDS011;6321;53.798;10.382;2022-07-06T01:53:59;5.03;;;2.63;;
12511;SDS011;6321;53.798;10.382;2022-07-06T01:56:24;7.67;;;3.00;;
12511;SDS011;6321;53.798;10.382;2022-07-06T01:58:50;5.00;;;2.50;;
12511;SDS011;6321;53.798;10.382;2022-07-06T02:01:17;5.83;;;2.80;;
12511;SDS011;6321;53.798;10.382;2022-07-06T02:03:43;7.87;;;2.80;;
12511;SDS011;6321;53.798;10.382;2022-07-06T02:06:10;5.73;;;2.97;;
12511;SDS011;6321;53.798;10.382;2022-07-06T02:08:39;7.37;;;2.53;;
12511;SDS011;6321;53.798;10.382;2022-07-06T02:11:06;5.03;;;2.63;;
12511;SDS011;6321;53.798;10.382;2022-07-06T02:13:32;5.87;;;2.90;;
12511;SDS011;6321;53.798;10.382;2022-07-06T02:15:58;6.07;;;3.00;;
12511;SDS011;6321;53.798;10.382;2022-07-06T02:18:24;5.63;;;2.83;;
12511;SDS011;6321;53.798;10.382;2022-07-06T02:20:50;6.97;;;2.70;;
12511;SDS011;6321;53.798;10.382;2022-07-06T02:23:16;5.07;;;3.57;;
12511;SDS011;6321;53.798;10.382;2022-07-06T02:25:41;5.57;;;2.40;;
12511;SDS011;6321;53.798;10.382;2022-07-06T02:28:07;4.17;;;2.53;;
12511;SDS011;6321;53.798;10.382;2022-07-06T02:30:33;6.40;;;2.53;;
12511;SDS011;6321;53.798;10.382;2022-07-06T02:32:59;7.07;;;2.90;;
12511;SDS011;6321;53.798;10.382;2022-07-06T02:35:25;5.70;;;2.40;;
12511;SDS011;6321;53.798;10.382;2022-07-06T02:37:52;4.90;;;2.93;;
12511;SDS011;6321;53.798;10.382;2022-07-06T02:40:18;4.60;;;2.50;;
12511;SDS011;6321;53.798;10.382;2022-07-06T02:42:44;3.33;;;2.43;;
12511;SDS011;6321;53.798;10.382;2022-07-06T02:45:10;4.83;;;2.70;;
12511;SDS011;6321;53.798;10.382;2022-07-06T02:47:36;4.40;;;2.40;;
12511;SDS011;6321;53.798;10.382;2022-07-06T02:50:03;6.57;;;2.73;;
12511;SDS011;6321;53.798;10.382;2022-07-06T02:52:29;5.67;;;2.60;;
12511;SDS011;6321;53.798;10.382;2022-07-06T02:54:55;7.13;;;2.40;;
12511;SDS011;6321;53.798;10.382;2022-07-06T02:57:21;3.53;;;2.10;;
12511;SDS011;6321;53.798;10.382;2022-07-06T02:59:47;5.33;;;2.50;;
12511;SDS011;6321;53.798;10.382;2022-07-06T03:02:14;7.77;;;3.20;;
12511;SDS011;6321;53.798;10.382;2022-07-06T03:04:40;4.70;;;2.43;;
12511;SDS011;6321;53.798;10.382;2022-07-06T03:07:06;6.67;;;2.20;;
12511;SDS011;6321;53.798;10.382;2022-07-06T03:09:32;5.53;;;1.83;;
12511;SDS011;6321;53.798;10.382;2022-07-06T03:11:58;4.93;;;2.10;;
12511;SDS011;6321;53.798;10.382;2022-07-06T03:14:24;4.13;;;1.90;;
12511;SDS011;6321;53.798;10.382;2022-07-06T03:16:50;3.90;;;1.97;;
12511;SDS011;6321;53.798;10.382;2022-07-06T03:19:16;3.03;;;1.70;;
12511;SDS011;6321;53.798;10.382;2022-07-06T03:21:42;2.23;;;1.50;;
12511;SDS011;6321;53.798;10.382;2022-07-06T03:24:08;5.17;;;1.73;;
12511;SDS011;6321;53.798;10.382;2022-07-06T03:26:34;2.13;;;1.77;;
12511;SDS011;6321;53.798;10.382;2022-07-06T03:29:00;4.63;;;1.70;;
12511;SDS011;6321;53.798;10.382;2022-07-06T03:31:26;2.33;;;1.57;;
12511;SDS011;6321;53.798;10.382;2022-07-06T03:33:52;3.00;;;1.63;;
12511;SDS011;6321;53.798;10.382;2022-07-06T03:36:17;2.03;;;1.53;;
12511;SDS011;6321;53.798;10.382;2022-07-06T03:38:43;5.13;;;1.70;;
12511;SDS011;6321;53.798;10.382;2022-07-06T03:41:09;5.80;;;1.60;;
12511;SDS011;6321;53.798;10.382;2022-07-06T03:43:35;4.97;;;1.40;;
12511;SDS011;6321;53.798;10.382;2022-07-06T03:46:02;1.63;;;1.40;;
12511;SDS011;6321;53.798;10.382;2022-07-06T03:48:28;3.97;;;1.63;;
12511;SDS011;6321;53.798;10.382;2022-07-06T03:50:54;2.67;;;1.60;;
12511;SDS011;6321;53.798;10.382;2022-07-06T03:53:20;2.00;;;1.30;;
12511;SDS011;6321;53.798;10.382;2022-07-06T03:55:46;2.57;;;1.43;;
12511;SDS011;6321;53.798;10.382;2022-07-06T03:58:32;2.67;;;1.30;;
12511;SDS011;6321;53.798;10.382;2022-07-06T04:00:59;2.23;;;1.30;;
12511;SDS011;6321;53.798;10.382;2022-07-06T04:03:25;3.00;;;1.37;;
12511;SDS011;6321;53.798;10.382;2022-07-06T04:05:50;3.03;;;1.63;;
12511;SDS011;6321;53.798;10.382;2022-07-06T04:08:16;2.97;;;1.63;;
12511;SDS011;6321;53.798;10.382;2022-07-06T04:10:42;3.27;;;1.47;;
12511;SDS011;6321;53.798;10.382;2022-07-06T04:13:08;2.60;;;1.30;;
12511;SDS011;6321;53.798;10.382;2022-07-06T04:15:34;1.57;;;1.33;;
12511;SDS011;6321;53.798;10.382;2022-07-06T04:18:00;4.83;;;1.80;;
12511;SDS011;6321;53.798;10.382;2022-07-06T04:20:26;3.03;;;1.47;;
12511;SDS011;6321;53.798;10.382;2022-07-06T04:22:53;3.97;;;1.60;;
12511;SDS011;6321;53.798;10.382;2022-07-06T04:25:18;5.07;;;1.90;;
12511;SDS011;6321;53.798;10.382;2022-07-06T04:27:44;4.17;;;2.23;;
12511;SDS011;6321;53.798;10.382;2022-07-06T04:30:10;3.43;;;1.60;;
12511;SDS011;6321;53.798;10.382;2022-07-06T04:32:36;3.70;;;1.50;;
12511;SDS011;6321;53.798;10.382;2022-07-06T04:35:03;1.53;;;1.20;;
12511;SDS011;6321;53.798;10.382;2022-07-06T04:37:29;4.97;;;1.50;;
12511;SDS011;6321;53.798;10.382;2022-07-06T04:39:55;4.37;;;1.50;;
12511;SDS011;6321;53.798;10.382;2022-07-06T04:42:21;6.47;;;1.70;;
12511;SDS011;6321;53.798;10.382;2022-07-06T04:44:47;3.00;;;1.60;;
12511;SDS011;6321;53.798;10.382;2022-07-06T04:47:13;3.23;;;1.90;;
12511;SDS011;6321;53.798;10.382;2022-07-06T04:49:39;2.27;;;1.70;;
12511;SDS011;6321;53.798;10.382;2022-07-06T04:52:05;5.43;;;2.00;;
12511;SDS011;6321;53.798;10.382;2022-07-06T04:54:32;1.87;;;1.30;;
12511;SDS011;6321;53.798;10.382;2022-07-06T04:56:58;1.40;;;1.30;;
12511;SDS011;6321;53.798;10.382;2022-07-06T04:59:24;2.50;;;1.53;;
12511;SDS011;6321;53.798;10.382;2022-07-06T05:01:50;5.30;;;1.43;;
12511;SDS011;6321;53.798;10.382;2022-07-06T05:04:16;3.63;;;1.80;;
12511;SDS011;6321;53.798;10.382;2022-07-06T05:06:45;2.77;;;1.60;;
12511;SDS011;6321;53.798;10.382;2022-07-06T05:09:11;4.30;;;1.70;;
12511;SDS011;6321;53.798;10.382;2022-07-06T05:11:37;3.73;;;1.90;;
12511;SDS011;6321;53.798;10.382;2022-07-06T05:14:03;4.50;;;1.97;;
12511;SDS011;6321;53.798;10.382;2022-07-06T05:16:29;2.63;;;1.50;;
12511;SDS011;6321;53.798;10.382;2022-07-06T05:18:55;8.07;;;2.87;;
12511;SDS011;6321;53.798;10.382;2022-07-06T05:21:21;5.70;;;2.07;;
12511;SDS011;6321;53.798;10.382;2022-07-06T05:23:47;3.07;;;2.00;;
12511;SDS011;6321;53.798;10.382;2022-07-06T05:26:13;4.80;;;1.90;;
12511;SDS011;6321;53.798;10.382;2022-07-06T05:28:39;4.13;;;2.47;;
12511;SDS011;6321;53.798;10.382;2022-07-06T05:31:05;6.57;;;2.23;;
12511;SDS011;6321;53.798;10.382;2022-07-06T05:33:31;5.47;;;2.00;;
12511;SDS011;6321;53.798;10.382;2022-07-06T05:35:57;5.13;;;2.10;;
12511;SDS011;6321;53.798;10.382;2022-07-06T05:38:23;3.07;;;1.77;;
12511;SDS011;6321;53.798;10.382;2022-07-06T05:40:49;6.63;;;2.10;;
12511;SDS011;6321;53.798;10.382;2022-07-06T05:43:15;5.90;;;2.27;;
12511;SDS011;6321;53.798;10.382;2022-07-06T05:45:41;5.20;;;2.50;;
12511;SDS011;6321;53.798;10.382;2022-07-06T05:48:07;5.60;;;1.93;;
12511;SDS011;6321;53.798;10.382;2022-07-06T05:50:52;6.23;;;2.43;;
12511;SDS011;6321;53.798;10.382;2022-07-06T05:53:18;3.87;;;2.20;;
12511;SDS011;6321;53.798;10.382;2022-07-06T05:55:45;5.80;;;2.27;;
12511;SDS011;6321;53.798;10.382;2022-07-06T05:58:11;10.23;;;2.40;;
12511;SDS011;6321;53.798;10.382;2022-07-06T06:00:37;4.77;;;1.90;;
12511;SDS011;6321;53.798;10.382;2022-07-06T06:03:03;4.47;;;2.00;;
12511;SDS011;6321;53.798;10.382;2022-07-06T06:05:29;7.93;;;2.47;;
12511;SDS011;6321;53.798;10.382;2022-07-06T06:07:55;4.33;;;2.20;;
12511;SDS011;6321;53.798;10.382;2022-07-06T06:10:21;5.17;;;1.90;;
12511;SDS011;6321;53.798;10.382;2022-07-06T06:12:47;6.37;;;2.20;;
12511;SDS011;6321;53.798;10.382;2022-07-06T06:15:13;5.80;;;2.27;;
12511;SDS011;6321;53.798;10.382;2022-07-06T06:17:39;7.23;;;1.80;;
12511;SDS011;6321;53.798;10.382;2022-07-06T06:20:06;5.30;;;1.80;;
12511;SDS011;6321;53.798;10.382;2022-07-06T06:22:49;5.97;;;1.90;;
12511;SDS011;6321;53.798;10.382;2022-07-06T06:25:20;8.03;;;2.10;;
12511;SDS011;6321;53.798;10.382;2022-07-06T06:27:46;5.50;;;2.30;;
12511;SDS011;6321;53.798;10.382;2022-07-06T06:30:13;5.80;;;1.93;;
12511;SDS011;6321;53.798;10.382;2022-07-06T06:32:39;5.10;;;2.10;;
12511;SDS011;6321;53.798;10.382;2022-07-06T06:35:05;7.83;;;2.07;;
12511;SDS011;6321;53.798;10.382;2022-07-06T06:37:31;5.57;;;2.03;;
12511;SDS011;6321;53.798;10.382;2022-07-06T06:39:59;3.37;;;1.70;;
12511;SDS011;6321;53.798;10.382;2022-07-06T06:42:25;4.97;;;2.20;;
12511;SDS011;6321;53.798;10.382;2022-07-06T06:44:50;3.90;;;1.80;;
12511;SDS011;6321;53.798;10.382;2022-07-06T06:47:16;4.40;;;1.97;;
12511;SDS011;6321;53.798;10.382;2022-07-06T06:49:44;3.63;;;1.90;;
12511;SDS011;6321;53.798;10.382;2022-07-06T06:52:10;3.43;;;1.57;;
12511;SDS011;6321;53.798;10.382;2022-07-06T06:54:35;3.63;;;1.50;;
12511;SDS011;6321;53.798;10.382;2022-07-06T06:57:01;3.57;;;1.50;;
12511;SDS011;6321;53.798;10.382;2022-07-06T06:59:27;4.97;;;1.50;;
12511;SDS011;6321;53.798;10.382;2022-07-06T07:01:53;5.50;;;1.70;;
12511;SDS011;6321;53.798;10.382;2022-07-06T07:04:19;4.93;;;1.63;;
12511;SDS011;6321;53.798;10.382;2022-07-06T07:06:45;4.40;;;1.10;;
12511;SDS011;6321;53.798;10.382;2022-07-06T07:09:11;3.13;;;1.43;;
12511;SDS011;6321;53.798;10.382;2022-07-06T07:11:37;3.13;;;1.40;;
12511;SDS011;6321;53.798;10.382;2022-07-06T07:14:03;5.60;;;2.17;;
12511;SDS011;6321;53.798;10.382;2022-07-06T07:16:29;2.63;;;1.30;;
12511;SDS011;6321;53.798;10.382;2022-07-06T07:18:55;4.57;;;1.50;;
12511;SDS011;6321;53.798;10.382;2022-07-06T07:21:21;3.77;;;1.40;;
12511;SDS011;6321;53.798;10.382;2022-07-06T07:23:47;3.83;;;1.60;;
12511;SDS011;6321;53.798;10.382;2022-07-06T07:26:15;3.50;;;1.57;;
12511;SDS011;6321;53.798;10.382;2022-07-06T07:28:41;4.60;;;1.60;;
12511;SDS011;6321;53.798;10.382;2022-07-06T07:31:06;2.47;;;1.33;;
12511;SDS011;6321;53.798;10.382;2022-07-06T07:33:33;5.43;;;1.47;;
12511;SDS011;6321;53.798;10.382;2022-07-06T07:35:59;3.80;;;1.60;;
12511;SDS011;6321;53.798;10.382;2022-07-06T07:38:25;3.87;;;1.40;;
12511;SDS011;6321;53.798;10.382;2022-07-06T07:40:53;8.70;;;1.60;;
12511;SDS011;6321;53.798;10.382;2022-07-06T07:43:19;7.40;;;1.63;;
12511;SDS011;6321;53.798;10.382;2022-07-06T07:45:45;4.63;;;1.50;;
12511;SDS011;6321;53.798;10.382;2022-07-06T07:48:11;3.27;;;1.40;;
12511;SDS011;6321;53.798;10.382;2022-07-06T07:50:37;1.50;;;1.03;;
12511;SDS011;6321;53.798;10.382;2022-07-06T07:53:03;2.43;;;1.10;;
12511;SDS011;6321;53.798;10.382;2022-07-06T07:55:29;6.47;;;1.40;;
12511;SDS011;6321;53.798;10.382;2022-07-06T07:57:55;3.27;;;1.20;;
12511;SDS011;6321;53.798;10.382;2022-07-06T08:00:21;4.47;;;1.70;;
12511;SDS011;6321;53.798;10.382;2022-07-06T08:02:47;3.60;;;1.00;;
12511;SDS011;6321;53.798;10.382;2022-07-06T08:05:13;2.97;;;1.20;;
12511;SDS011;6321;53.798;10.382;2022-07-06T08:07:41;2.13;;;1.00;;
12511;SDS011;6321;53.798;10.382;2022-07-06T08:10:07;1.57;;;1.20;;
12511;SDS011;6321;53.798;10.382;2022-07-06T08:12:33;2.57;;;1.37;;
12511;SDS011;6321;53.798;10.382;2022-07-06T08:14:59;1.77;;;1.00;;
12511;SDS011;6321;53.798;10.382;2022-07-06T08:17:25;3.37;;;1.30;;
12511;SDS011;6321;53.798;10.382;2022-07-06T08:19:51;3.43;;;1.20;;
12511;SDS011;6321;53.798;10.382;2022-07-06T08:22:17;2.20;;;1.10;;
12511;SDS011;6321;53.798;10.382;2022-07-06T08:24:43;3.43;;;1.40;;
12511;SDS011;6321;53.798;10.382;2022-07-06T08:27:09;1.27;;;1.03;;
12511;SDS011;6321;53.798;10.382;2022-07-06T08:29:35;2.03;;;1.00;;
12511;SDS011;6321;53.798;10.382;2022-07-06T08:32:00;2.33;;;1.10;;
12511;SDS011;6321;53.798;10.382;2022-07-06T08:34:27;3.90;;;1.33;;
12511;SDS011;6321;53.798;10.382;2022-07-06T08:36:53;3.47;;;1.30;;
12511;SDS011;6321;53.798;10.382;2022-07-06T08:39:19;4.40;;;1.27;;
12511;SDS011;6321;53.798;10.382;2022-07-06T08:41:45;4.87;;;1.30;;
12511;SDS011;6321;53.798;10.382;2022-07-06T08:44:12;4.87;;;1.40;;
12511;SDS011;6321;53.798;10.382;2022-07-06T08:46:38;2.30;;;1.37;;
12511;SDS011;6321;53.798;10.382;2022-07-06T08:49:09;2.27;;;1.10;;
12511;SDS011;6321;53.798;10.382;2022-07-06T08:51:37;2.13;;;1.10;;
12511;SDS011;6321;53.798;10.382;2022-07-06T08:54:04;2.80;;;1.40;;
12511;SDS011;6321;53.798;10.382;2022-07-06T08:56:30;1.60;;;1.10;;
12511;SDS011;6321;53.798;10.382;2022-07-06T08:58:56;3.90;;;1.23;;
12511;SDS011;6321;53.798;10.382;2022-07-06T09:01:22;4.93;;;1.40;;
12511;SDS011;6321;53.798;10.382;2022-07-06T09:03:49;2.77;;;1.30;;
12511;SDS011;6321;53.798;10.382;2022-07-06T09:06:19;3.70;;;1.10;;
12511;SDS011;6321;53.798;10.382;2022-07-06T09:08:49;4.80;;;1.20;;
12511;SDS011;6321;53.798;10.382;2022-07-06T09:11:15;1.83;;;1.03;;
12511;SDS011;6321;53.798;10.382;2022-07-06T09:13:41;1.67;;;1.20;;
12511;SDS011;6321;53.798;10.382;2022-07-06T09:16:10;1.17;;;0.80;;
12511;SDS011;6321;53.798;10.382;2022-07-06T09:18:37;3.90;;;1.10;;
12511;SDS011;6321;53.798;10.382;2022-07-06T09:21:04;1.93;;;1.07;;
12511;SDS011;6321;53.798;10.382;2022-07-06T09:23:30;1.80;;;1.03;;
12511;SDS011;6321;53.798;10.382;2022-07-06T09:25:56;2.90;;;1.50;;
12511;SDS011;6321;53.798;10.382;2022-07-06T09:28:22;2.10;;;1.20;;
12511;SDS011;6321;53.798;10.382;2022-07-06T09:30:48;2.83;;;1.00;;
12511;SDS011;6321;53.798;10.382;2022-07-06T09:33:17;1.73;;;1.10;;
12511;SDS011;6321;53.798;10.382;2022-07-06T09:35:43;2.97;;;1.10;;
12511;SDS011;6321;53.798;10.382;2022-07-06T09:40:40;3.67;;;1.20;;
12511;SDS011;6321;53.798;10.382;2022-07-06T09:43:10;1.50;;;1.20;;
12511;SDS011;6321;53.798;10.382;2022-07-06T09:45:37;2.57;;;1.50;;
12511;SDS011;6321;53.798;10.382;2022-07-06T09:48:08;3.43;;;1.23;;
12511;SDS011;6321;53.798;10.382;2022-07-06T09:50:43;3.57;;;1.30;;
12511;SDS011;6321;53.798;10.382;2022-07-06T09:53:10;2.60;;;1.00;;
12511;SDS011;6321;53.798;10.382;2022-07-06T09:55:36;3.53;;;1.20;;
12511;SDS011;6321;53.798;10.382;2022-07-06T09:58:03;1.57;;;1.00;;
12511;SDS011;6321;53.798;10.382;2022-07-06T10:00:29;1.00;;;0.90;;
12511;SDS011;6321;53.798;10.382;2022-07-06T10:02:55;1.63;;;1.20;;
12511;SDS011;6321;53.798;10.382;2022-07-06T10:05:21;1.20;;;1.10;;
12511;SDS011;6321;53.798;10.382;2022-07-06T10:07:55;3.53;;;1.20;;
12511;SDS011;6321;53.798;10.382;2022-07-06T10:10:22;3.13;;;1.00;;
12511;SDS011;6321;53.798;10.382;2022-07-06T10:12:49;1.53;;;0.97;;
12511;SDS011;6321;53.798;10.382;2022-07-06T10:15:15;3.47;;;1.20;;
12511;SDS011;6321;53.798;10.382;2022-07-06T10:17:43;1.33;;;0.90;;
12511;SDS011;6321;53.798;10.382;2022-07-06T10:20:09;2.40;;;0.90;;
12511;SDS011;6321;53.798;10.382;2022-07-06T10:22:37;1.67;;;0.90;;
12511;SDS011;6321;53.798;10.382;2022-07-06T10:25:04;3.80;;;1.13;;
12511;SDS011;6321;53.798;10.382;2022-07-06T10:27:31;1.53;;;1.00;;
12511;SDS011;6321;53.798;10.382;2022-07-06T10:29:57;3.10;;;0.90;;
12511;SDS011;6321;53.798;10.382;2022-07-06T10:32:23;1.43;;;0.90;;
12511;SDS011;6321;53.798;10.382;2022-07-06T10:34:50;0.90;;;0.90;;
12511;SDS011;6321;53.798;10.382;2022-07-06T10:37:23;1.33;;;0.90;;
12511;SDS011;6321;53.798;10.382;2022-07-06T10:39:49;2.80;;;0.90;;
12511;SDS011;6321;53.798;10.382;2022-07-06T10:42:42;1.97;;;1.00;;
12511;SDS011;6321;53.798;10.382;2022-07-06T10:45:11;3.00;;;1.03;;
12511;SDS011;6321;53.798;10.382;2022-07-06T10:47:37;3.27;;;1.00;;
12511;SDS011;6321;53.798;10.382;2022-07-06T10:50:03;1.50;;;0.87;;
12511;SDS011;6321;53.798;10.382;2022-07-06T10:52:48;1.80;;;1.00;;
12511;SDS011;6321;53.798;10.382;2022-07-06T10:55:27;3.43;;;1.00;;
12511;SDS011;6321;53.798;10.382;2022-07-06T10:57:54;3.00;;;1.10;;
12511;SDS011;6321;53.798;10.382;2022-07-06T11:00:20;3.63;;;1.40;;
12511;SDS011;6321;53.798;10.382;2022-07-06T11:02:46;2.20;;;1.00;;
12511;SDS011;6321;53.798;10.382;2022-07-06T11:05:14;1.90;;;1.00;;
12511;SDS011;6321;53.798;10.382;2022-07-06T11:08:00;1.33;;;1.00;;
12511;SDS011;6321;53.798;10.382;2022-07-06T11:10:26;1.80;;;1.13;;
12511;SDS011;6321;53.798;10.382;2022-07-06T11:12:59;2.80;;;1.30;;
12511;SDS011;6321;53.798;10.382;2022-07-06T11:15:46;1.90;;;1.00;;
12511;SDS011;6321;53.798;10.382;2022-07-06T11:18:12;2.27;;;0.87;;
12511;SDS011;6321;53.798;10.382;2022-07-06T11:20:39;3.13;;;0.93;;
12511;SDS011;6321;53.798;10.382;2022-07-06T11:23:05;2.60;;;1.10;;
12511;SDS011;6321;53.798;10.382;2022-07-06T11:25:31;3.40;;;1.23;;
12511;SDS011;6321;53.798;10.382;2022-07-06T11:27:57;2.87;;;1.30;;
12511;SDS011;6321;53.798;10.382;2022-07-06T11:30:23;1.13;;;1.03;;
12511;SDS011;6321;53.798;10.382;2022-07-06T11:32:50;3.63;;;1.10;;
12511;SDS011;6321;53.798;10.382;2022-07-06T11:35:22;2.60;;;0.83;;
12511;SDS011;6321;53.798;10.382;2022-07-06T11:37:48;2.50;;;1.07;;
12511;SDS011;6321;53.798;10.382;2022-07-06T11:40:14;1.47;;;1.10;;
12511;SDS011;6321;53.798;10.382;2022-07-06T11:42:52;2.10;;;1.10;;
12511;SDS011;6321;53.798;10.382;2022-07-06T11:45:25;4.13;;;1.07;;
12511;SDS011;6321;53.798;10.382;2022-07-06T11:47:51;1.40;;;0.90;;
12511;SDS011;6321;53.798;10.382;2022-07-06T11:50:20;2.63;;;1.00;;
12511;SDS011;6321;53.798;10.382;2022-07-06T11:52:46;1.80;;;1.17;;
12511;SDS011;6321;53.798;10.382;2022-07-06T11:55:14;2.57;;;1.13;;
12511;SDS011;6321;53.798;10.382;2022-07-06T11:57:40;3.70;;;1.37;;
12511;SDS011;6321;53.798;10.382;2022-07-06T12:00:06;1.90;;;1.00;;
12511;SDS011;6321;53.798;10.382;2022-07-06T12:02:33;5.57;;;1.13;;
12511;SDS011;6321;53.798;10.382;2022-07-06T12:04:58;3.37;;;1.10;;
12511;SDS011;6321;53.798;10.382;2022-07-06T12:07:25;3.30;;;1.40;;
12511;SDS011;6321;53.798;10.382;2022-07-06T12:09:51;2.53;;;1.30;;
12511;SDS011;6321;53.798;10.382;2022-07-06T12:12:17;4.97;;;1.30;;
12511;SDS011;6321;53.798;10.382;2022-07-06T12:14:43;3.27;;;1.10;;
12511;SDS011;6321;53.798;10.382;2022-07-06T12:17:10;1.37;;;0.90;;
12511;SDS011;6321;53.798;10.382;2022-07-06T12:19:36;1.80;;;1.30;;
12511;SDS011;6321;53.798;10.382;2022-07-06T12:22:03;4.10;;;1.67;;
12511;SDS011;6321;53.798;10.382;2022-07-06T12:24:30;3.13;;;1.17;;
12511;SDS011;6321;53.798;10.382;2022-07-06T12:26:56;3.80;;;1.37;;
12511;SDS011;6321;53.798;10.382;2022-07-06T12:29:22;2.17;;;1.13;;
12511;SDS011;6321;53.798;10.382;2022-07-06T12:34:18;2.17;;;1.17;;
12511;SDS011;6321;53.798;10.382;2022-07-06T12:39:14;3.50;;;1.17;;
12511;SDS011;6321;53.798;10.382;2022-07-06T12:41:44;3.80;;;1.27;;
12511;SDS011;6321;53.798;10.382;2022-07-06T12:44:11;3.10;;;1.23;;
12511;SDS011;6321;53.798;10.382;2022-07-06T12:46:37;3.20;;;1.10;;
12511;SDS011;6321;53.798;10.382;2022-07-06T12:49:10;3.93;;;1.00;;
12511;SDS011;6321;53.798;10.382;2022-07-06T12:51:50;2.23;;;1.23;;
12511;SDS011;6321;53.798;10.382;2022-07-06T12:54:16;4.67;;;1.10;;
12511;SDS011;6321;53.798;10.382;2022-07-06T12:56:55;4.87;;;1.30;;
12511;SDS011;6321;53.798;10.382;2022-07-06T12:59:24;1.87;;;0.90;;
12511;SDS011;6321;53.798;10.382;2022-07-06T13:01:51;4.67;;;0.97;;
12511;SDS011;6321;53.798;10.382;2022-07-06T13:04:20;2.33;;;1.33;;
12511;SDS011;6321;53.798;10.382;2022-07-06T13:06:46;0.90;;;0.80;;
12511;SDS011;6321;53.798;10.382;2022-07-06T13:09:12;1.83;;;1.07;;
12511;SDS011;6321;53.798;10.382;2022-07-06T13:11:39;3.07;;;1.00;;
12511;SDS011;6321;53.798;10.382;2022-07-06T13:14:05;4.47;;;1.37;;
12511;SDS011;6321;53.798;10.382;2022-07-06T13:16:31;4.43;;;1.03;;
12511;SDS011;6321;53.798;10.382;2022-07-06T13:18:59;2.43;;;1.10;;
12511;SDS011;6321;53.798;10.382;2022-07-06T13:21:25;3.80;;;0.90;;
12511;SDS011;6321;53.798;10.382;2022-07-06T13:23:51;1.97;;;1.07;;
12511;SDS011;6321;53.798;10.382;2022-07-06T13:26:17;3.00;;;1.10;;
12511;SDS011;6321;53.798;10.382;2022-07-06T13:28:43;1.87;;;0.90;;
12511;SDS011;6321;53.798;10.382;2022-07-06T13:31:09;2.13;;;1.17;;
12511;SDS011;6321;53.798;10.382;2022-07-06T13:33:36;2.90;;;0.80;;
12511;SDS011;6321;53.798;10.382;2022-07-06T13:36:02;4.33;;;1.00;;
12511;SDS011;6321;53.798;10.382;2022-07-06T13:38:29;1.87;;;1.00;;
12511;SDS011;6321;53.798;10.382;2022-07-06T13:40:54;3.63;;;1.10;;
12511;SDS011;6321;53.798;10.382;2022-07-06T13:43:20;1.00;;;0.90;;
12511;SDS011;6321;53.798;10.382;2022-07-06T13:45:46;2.33;;;0.90;;
12511;SDS011;6321;53.798;10.382;2022-07-06T13:48:12;2.30;;;0.90;;
12511;SDS011;6321;53.798;10.382;2022-07-06T13:50:38;2.80;;;0.83;;
12511;SDS011;6321;53.798;10.382;2022-07-06T13:53:04;1.50;;;0.87;;
12511;SDS011;6321;53.798;10.382;2022-07-06T13:55:31;1.33;;;0.80;;
12511;SDS011;6321;53.798;10.382;2022-07-06T13:57:57;1.73;;;0.93;;
12511;SDS011;6321;53.798;10.382;2022-07-06T14:00:23;4.03;;;0.90;;
12511;SDS011;6321;53.798;10.382;2022-07-06T14:02:49;2.30;;;0.90;;
12511;SDS011;6321;53.798;10.382;2022-07-06T14:05:15;1.23;;;0.80;;
12511;SDS011;6321;53.798;10.382;2022-07-06T14:07:41;3.57;;;1.00;;
12511;SDS011;6321;53.798;10.382;2022-07-06T14:10:07;1.90;;;0.90;;
12511;SDS011;6321;53.798;10.382;2022-07-06T14:12:33;2.17;;;1.10;;
12511;SDS011;6321;53.798;10.382;2022-07-06T14:14:59;2.47;;;0.87;;
12511;SDS011;6321;53.798;10.382;2022-07-06T14:17:25;2.00;;;1.00;;
12511;SDS011;6321;53.798;10.382;2022-07-06T14:19:51;2.63;;;1.20;;
12511;SDS011;6321;53.798;10.382;2022-07-06T14:22:17;3.40;;;1.20;;
12511;SDS011;6321;53.798;10.382;2022-07-06T14:24:44;1.97;;;1.10;;
12511;SDS011;6321;53.798;10.382;2022-07-06T14:27:09;1.33;;;1.03;;
12511;SDS011;6321;53.798;10.382;2022-07-06T14:29:35;1.83;;;0.90;;
12511;SDS011;6321;53.798;10.382;2022-07-06T14:32:01;2.93;;;1.13;;
12511;SDS011;6321;53.798;10.382;2022-07-06T14:34:27;2.20;;;0.90;;
12511;SDS011;6321;53.798;10.382;2022-07-06T14:36:53;1.17;;;0.90;;
12511;SDS011;6321;53.798;10.382;2022-07-06T14:39:19;2.50;;;0.97;;
12511;SDS011;6321;53.798;10.382;2022-07-06T14:41:45;4.53;;;1.37;;
12511;SDS011;6321;53.798;10.382;2022-07-06T14:44:11;2.37;;;1.00;;
12511;SDS011;6321;53.798;10.382;2022-07-06T14:46:37;0.80;;;0.80;;
12511;SDS011;6321;53.798;10.382;2022-07-06T14:49:03;1.63;;;0.90;;
12511;SDS011;6321;53.798;10.382;2022-07-06T14:51:29;1.53;;;0.80;;
12511;SDS011;6321;53.798;10.382;2022-07-06T14:53:55;1.60;;;1.00;;